createdAt,value
2019-02-10T00:00:43.996Z,22.57
2019-02-10T00:03:12.450Z,16.43
2019-02-10T00:05:40.926Z,19.07
2019-02-10T00:08:09.456Z,19.97
2019-02-10T00:10:37.913Z,20.00
2019-02-10T00:13:26.488Z,22.20
2019-02-10T00:15:56.177Z,20.53
2019-02-10T00:18:24.956Z,19.00
2019-02-10T00:20:53.403Z,22.33
2019-02-10T00:23:21.982Z,19.57
2019-02-10T00:25:50.709Z,21.13
2019-02-10T00:28:19.558Z,22.00
2019-02-10T00:30:48.258Z,22.40
2019-02-10T00:33:16.829Z,16.60
2019-02-10T00:35:45.392Z,17.63
2019-02-10T00:38:13.859Z,19.53
2019-02-10T00:40:42.335Z,22.93
2019-02-10T00:43:10.813Z,21.87
2019-02-10T00:45:39.386Z,19.93
2019-02-10T00:48:07.845Z,18.37
2019-02-10T00:50:36.359Z,27.40
2019-02-10T00:53:05.104Z,18.23
2019-02-10T00:55:33.523Z,22.07
2019-02-10T00:58:01.961Z,21.60
2019-02-10T01:00:30.485Z,22.80
2019-02-10T01:02:58.949Z,21.33
2019-02-10T01:05:27.420Z,30.13
2019-02-10T01:07:55.939Z,16.13
2019-02-10T01:10:25.747Z,19.83
2019-02-10T01:12:54.348Z,20.07
2019-02-10T01:15:22.812Z,22.33
2019-02-10T01:17:51.579Z,17.73
2019-02-10T01:20:20.235Z,21.63
2019-02-10T01:22:48.711Z,14.90
2019-02-10T01:25:17.228Z,21.57
2019-02-10T01:27:45.708Z,15.67
2019-02-10T01:30:15.392Z,23.80
2019-02-10T01:32:43.913Z,16.13
2019-02-10T01:35:12.754Z,19.73
2019-02-10T01:37:41.287Z,15.63
2019-02-10T01:40:10.805Z,18.85
2019-02-10T01:42:39.300Z,18.93
2019-02-10T01:45:10.541Z,22.10
2019-02-10T01:47:39.068Z,26.07
2019-02-10T01:50:09.962Z,15.67
2019-02-10T01:52:38.653Z,22.73
2019-02-10T01:55:12.155Z,20.27
2019-02-10T01:57:40.801Z,18.30
2019-02-10T02:00:16.309Z,24.07
2019-02-10T02:02:44.803Z,21.70
2019-02-10T02:05:13.249Z,23.03
2019-02-10T02:07:42.112Z,15.87
2019-02-10T02:10:14.885Z,18.43
2019-02-10T02:12:43.363Z,22.37
2019-02-10T02:15:14.286Z,23.27
2019-02-10T02:17:43.050Z,19.27
2019-02-10T02:20:12.903Z,22.53
2019-02-10T02:22:41.438Z,20.87
2019-02-10T02:25:11.711Z,21.63
2019-02-10T02:27:40.298Z,21.57
2019-02-10T02:30:11.669Z,20.80
2019-02-10T02:32:40.198Z,21.63
2019-02-10T02:35:08.924Z,26.40
2019-02-10T02:37:37.368Z,20.23
2019-02-10T02:40:08.129Z,17.23
2019-02-10T02:42:36.725Z,16.57
2019-02-10T02:45:10.347Z,15.73
2019-02-10T02:47:38.855Z,14.87
2019-02-10T02:50:10.060Z,14.77
2019-02-10T02:52:38.664Z,18.30
2019-02-10T02:55:09.120Z,27.87
2019-02-10T02:57:37.707Z,19.23
2019-02-10T03:00:08.905Z,20.67
2019-02-10T03:02:37.333Z,20.50
2019-02-10T03:05:07.929Z,29.97
2019-02-10T03:07:36.611Z,17.80
2019-02-10T03:10:07.014Z,15.73
2019-02-10T03:12:39.421Z,25.30
2019-02-10T03:15:08.928Z,19.27
2019-02-10T03:17:37.470Z,17.93
2019-02-10T03:20:07.451Z,20.03
2019-02-10T03:22:35.905Z,23.43
2019-02-10T03:25:07.673Z,19.70
2019-02-10T03:27:36.092Z,19.20
2019-02-10T03:30:07.119Z,16.27
2019-02-10T03:32:35.552Z,16.63
2019-02-10T03:35:06.092Z,20.77
2019-02-10T03:37:34.503Z,22.80
2019-02-10T03:40:03.121Z,22.77
2019-02-10T03:42:31.667Z,17.20
2019-02-10T03:45:05.417Z,19.57
2019-02-10T03:47:33.993Z,20.13
2019-02-10T03:50:02.404Z,18.37
2019-02-10T03:52:30.838Z,15.75
2019-02-10T03:54:59.321Z,13.00
2019-02-10T03:57:27.725Z,20.73
2019-02-10T03:59:56.517Z,15.30
2019-02-10T04:02:24.984Z,18.10
2019-02-10T04:04:53.448Z,22.10
2019-02-10T04:07:21.892Z,22.53
2019-02-10T04:09:50.417Z,20.50
2019-02-10T04:12:18.842Z,17.87
2019-02-10T04:14:47.375Z,17.37
2019-02-10T04:17:15.796Z,15.23
2019-02-10T04:19:44.297Z,19.97
2019-02-10T04:22:12.720Z,17.83
2019-02-10T04:24:41.117Z,18.83
2019-02-10T04:27:09.569Z,14.83
2019-02-10T04:29:37.970Z,15.90
2019-02-10T04:32:06.400Z,15.07
2019-02-10T04:34:34.814Z,19.33
2019-02-10T04:37:03.242Z,23.52
2019-02-10T04:39:31.915Z,20.47
2019-02-10T04:42:00.351Z,15.83
2019-02-10T04:44:28.772Z,17.63
2019-02-10T04:46:57.182Z,14.50
2019-02-10T04:49:25.680Z,16.50
2019-02-10T04:51:54.113Z,16.15
2019-02-10T04:54:22.554Z,17.60
2019-02-10T04:56:51.000Z,16.03
2019-02-10T04:59:19.469Z,15.90
2019-02-10T05:01:47.917Z,17.90
2019-02-10T05:04:16.430Z,16.60
2019-02-10T05:06:44.872Z,17.93
2019-02-10T05:09:13.352Z,13.93
2019-02-10T05:11:41.824Z,17.53
2019-02-10T05:14:10.265Z,20.63
2019-02-10T05:16:38.694Z,16.73
2019-02-10T05:19:07.083Z,13.93
2019-02-10T05:21:35.492Z,16.97
2019-02-10T05:24:04.011Z,13.60
2019-02-10T05:26:32.496Z,15.63
2019-02-10T05:29:00.885Z,13.90
2019-02-10T05:31:29.333Z,16.93
2019-02-10T05:33:57.849Z,19.43
2019-02-10T05:36:26.251Z,20.87
2019-02-10T05:38:54.657Z,13.83
2019-02-10T05:41:23.085Z,14.73
2019-02-10T05:43:51.484Z,17.33
2019-02-10T05:46:19.908Z,18.77
2019-02-10T05:48:48.347Z,16.83
2019-02-10T05:51:16.773Z,11.90
2019-02-10T05:53:45.197Z,12.73
2019-02-10T05:56:13.682Z,13.73
2019-02-10T05:58:42.120Z,14.07
2019-02-10T06:01:46.718Z,15.30
2019-02-10T06:04:15.174Z,15.23
2019-02-10T06:06:43.682Z,14.73
2019-02-10T06:09:12.123Z,14.13
2019-02-10T06:11:40.545Z,16.13
2019-02-10T06:14:08.992Z,15.23
2019-02-10T06:16:37.406Z,10.60
2019-02-10T06:19:05.819Z,17.47
2019-02-10T06:21:34.268Z,10.53
2019-02-10T06:24:02.675Z,12.73
2019-02-10T06:26:31.108Z,12.90
2019-02-10T06:28:59.592Z,14.43
2019-02-10T06:31:27.988Z,20.30
2019-02-10T06:33:56.424Z,13.83
2019-02-10T06:36:24.858Z,14.50
2019-02-10T06:38:53.329Z,12.90
2019-02-10T06:41:21.796Z,15.00
2019-02-10T06:43:50.221Z,16.90
2019-02-10T06:46:18.669Z,11.37
2019-02-10T06:48:47.065Z,15.20
2019-02-10T06:51:15.513Z,20.27
2019-02-10T06:53:43.940Z,14.00
2019-02-10T06:56:12.453Z,16.00
2019-02-10T06:58:40.881Z,13.37
2019-02-10T07:01:10.988Z,12.00
2019-02-10T07:03:49.336Z,16.07
2019-02-10T07:06:17.752Z,10.63
2019-02-10T07:08:46.183Z,16.20
2019-02-10T07:11:14.596Z,13.40
2019-02-10T07:13:45.955Z,16.80
2019-02-10T07:16:34.906Z,16.17
2019-02-10T07:19:34.983Z,11.37
2019-02-10T07:22:22.557Z,13.73
2019-02-10T07:24:59.606Z,12.60
2019-02-10T07:27:28.285Z,17.43
2019-02-10T07:30:08.788Z,21.00
2019-02-10T07:32:49.233Z,15.87
2019-02-10T07:35:26.267Z,15.63
2019-02-10T07:37:57.779Z,16.23
2019-02-10T07:40:31.977Z,18.00
2019-02-10T07:43:15.097Z,14.67
2019-02-10T07:46:10.510Z,12.33
2019-02-10T07:48:48.027Z,17.10
2019-02-10T07:51:19.533Z,15.53
2019-02-10T07:53:59.891Z,17.03
2019-02-10T07:56:49.184Z,13.07
2019-02-10T07:59:41.406Z,15.93
2019-02-10T08:02:18.451Z,17.90
2019-02-10T08:05:06.142Z,16.97
2019-02-10T08:07:37.616Z,14.97
2019-02-10T08:10:30.180Z,16.23
2019-02-10T08:13:04.418Z,15.27
2019-02-10T08:15:53.457Z,15.90
2019-02-10T08:18:30.746Z,19.13
2019-02-10T08:21:21.481Z,15.87
2019-02-10T08:24:18.505Z,16.93
2019-02-10T08:27:01.576Z,18.17
2019-02-10T08:29:44.273Z,15.87
2019-02-10T08:32:15.992Z,21.93
2019-02-10T08:35:02.400Z,23.77
2019-02-10T08:37:39.212Z,16.93
2019-02-10T08:40:19.358Z,20.17
2019-02-10T08:42:56.495Z,19.37
2019-02-10T08:45:42.616Z,15.23
2019-02-10T08:48:19.877Z,22.00
2019-02-10T08:51:03.022Z,26.53
2019-02-10T08:53:31.435Z,18.27
2019-02-10T08:55:59.840Z,26.63
2019-02-10T08:58:28.301Z,15.33
2019-02-10T09:00:56.701Z,19.87
2019-02-10T09:03:25.133Z,15.97
2019-02-10T09:05:53.540Z,17.40
2019-02-10T09:08:21.989Z,16.73
2019-02-10T09:10:50.444Z,13.50
2019-02-10T09:13:18.844Z,18.07
2019-02-10T09:15:47.277Z,19.37
2019-02-10T09:18:15.689Z,13.00
2019-02-10T09:20:44.132Z,11.10
2019-02-10T09:23:12.612Z,19.10
2019-02-10T09:25:41.045Z,21.93
2019-02-10T09:28:09.514Z,16.47
2019-02-10T09:30:37.961Z,21.87
2019-02-10T09:33:06.404Z,13.33
2019-02-10T09:35:34.809Z,13.70
2019-02-10T09:38:03.215Z,21.53
2019-02-10T09:40:31.632Z,15.57
2019-02-10T09:43:00.041Z,14.00
2019-02-10T09:45:28.476Z,14.20
2019-02-10T09:47:56.904Z,15.57
2019-02-10T09:50:25.307Z,19.37
2019-02-10T09:52:53.772Z,17.20
2019-02-10T09:55:22.186Z,19.77
2019-02-10T09:57:50.614Z,17.80
2019-02-10T10:00:19.093Z,14.90
2019-02-10T10:02:47.538Z,18.37
2019-02-10T10:05:16.017Z,24.60
2019-02-10T10:07:44.457Z,18.07
2019-02-10T10:10:14.088Z,20.83
2019-02-10T10:12:42.513Z,15.65
2019-02-10T10:15:16.256Z,24.37
2019-02-10T10:17:44.691Z,17.57
2019-02-10T10:20:15.728Z,18.37
2019-02-10T10:22:44.161Z,21.87
2019-02-10T10:25:12.625Z,16.10
2019-02-10T10:27:41.047Z,16.40
2019-02-10T10:30:15.309Z,13.97
2019-02-10T10:32:43.785Z,23.43
2019-02-10T10:35:12.282Z,13.83
2019-02-10T10:37:40.767Z,17.83
2019-02-10T10:40:12.527Z,19.13
2019-02-10T10:42:40.937Z,18.43
2019-02-10T10:45:13.890Z,15.97
2019-02-10T10:47:42.297Z,17.65
2019-02-10T10:50:14.092Z,15.03
2019-02-10T10:52:42.516Z,22.43
2019-02-10T10:55:12.065Z,18.17
2019-02-10T10:57:40.518Z,22.47
2019-02-10T11:00:11.964Z,20.43
2019-02-10T11:02:40.370Z,20.67
2019-02-10T11:05:09.041Z,24.73
2019-02-10T11:07:37.469Z,29.67
2019-02-10T11:10:08.924Z,16.67
2019-02-10T11:12:37.372Z,15.57
2019-02-10T11:15:11.521Z,20.50
2019-02-10T11:17:39.945Z,19.60
2019-02-10T11:20:10.408Z,18.20
2019-02-10T11:22:38.931Z,19.60
2019-02-10T11:25:09.132Z,21.23
2019-02-10T11:27:37.609Z,20.40
2019-02-10T11:30:09.088Z,16.90
2019-02-10T11:32:37.548Z,17.10
2019-02-10T11:35:07.333Z,17.23
2019-02-10T11:37:35.760Z,17.13
2019-02-10T11:40:06.126Z,19.13
2019-02-10T11:42:34.617Z,21.77
2019-02-10T11:45:03.062Z,21.60
2019-02-10T11:47:31.476Z,24.90
2019-02-10T11:50:00.012Z,24.00
2019-02-10T11:52:28.415Z,20.00
2019-02-10T11:54:56.887Z,19.70
2019-02-10T11:57:25.298Z,23.43
2019-02-10T11:59:53.957Z,19.90
2019-02-10T12:02:22.400Z,22.67
2019-02-10T12:04:50.815Z,21.50
2019-02-10T12:07:19.225Z,19.57
2019-02-10T12:09:51.790Z,22.43
2019-02-10T12:12:17.772Z,14.13
2019-02-10T12:14:46.181Z,13.57
2019-02-10T12:17:14.600Z,23.27
2019-02-10T12:19:43.047Z,17.40
2019-02-10T12:22:11.460Z,16.47
2019-02-10T12:24:40.095Z,18.63
2019-02-10T12:27:08.581Z,24.13
2019-02-10T12:29:37.098Z,16.27
2019-02-10T12:32:05.505Z,19.30
2019-02-10T12:34:33.960Z,21.53
2019-02-10T12:37:02.362Z,23.00
2019-02-10T12:39:30.808Z,11.70
2019-02-10T12:41:59.309Z,18.83
2019-02-10T12:44:27.793Z,15.20
2019-02-10T12:46:56.220Z,18.40
2019-02-10T12:49:24.643Z,18.90
2019-02-10T12:51:53.077Z,19.00
2019-02-10T12:54:21.502Z,19.23
2019-02-10T12:56:49.933Z,16.60
2019-02-10T12:59:18.337Z,16.57
2019-02-10T13:01:46.760Z,17.50
2019-02-10T13:04:15.202Z,13.17
2019-02-10T13:06:43.618Z,16.77
2019-02-10T13:09:12.622Z,15.53
2019-02-10T13:11:41.105Z,18.73
2019-02-10T13:14:09.611Z,20.17
2019-02-10T13:16:38.055Z,25.00
2019-02-10T13:19:06.520Z,19.00
2019-02-10T13:21:34.933Z,31.43
2019-02-10T13:24:05.082Z,19.63
2019-02-10T13:26:33.637Z,23.27
2019-02-10T13:29:02.124Z,17.07
2019-02-10T13:31:30.546Z,23.43
2019-02-10T13:33:59.058Z,25.10
2019-02-10T13:36:27.528Z,23.63
2019-02-10T13:38:55.937Z,22.43
2019-02-10T13:41:25.932Z,24.27
2019-02-10T13:43:54.356Z,25.77
2019-02-10T13:46:22.778Z,24.63
2019-02-10T13:48:51.192Z,14.43
2019-02-10T13:51:19.674Z,24.10
2019-02-10T13:53:48.174Z,13.93
2019-02-10T13:56:16.853Z,26.57
2019-02-10T13:58:45.297Z,21.97
2019-02-10T14:01:13.711Z,21.20
2019-02-10T14:03:42.136Z,25.97
2019-02-10T14:06:10.552Z,19.43
2019-02-10T14:08:38.990Z,30.60
2019-02-10T14:11:07.473Z,26.37
2019-02-10T14:13:35.880Z,23.87
2019-02-10T14:16:04.304Z,33.33
2019-02-10T14:18:32.740Z,44.30
2019-02-10T14:21:02.512Z,48.43
2019-02-10T14:23:31.065Z,42.50
2019-02-10T14:25:59.496Z,27.63
2019-02-10T14:28:27.925Z,35.77
2019-02-10T14:30:57.218Z,33.90
2019-02-10T14:33:25.644Z,39.97
2019-02-10T14:35:54.076Z,40.13
2019-02-10T14:38:22.484Z,35.27
2019-02-10T14:40:50.888Z,25.97
2019-02-10T14:43:19.343Z,22.00
2019-02-10T14:45:47.745Z,18.90
2019-02-10T14:48:16.177Z,28.63
2019-02-10T14:50:44.585Z,20.63
2019-02-10T14:53:12.984Z,17.37
2019-02-10T14:55:41.409Z,21.77
2019-02-10T14:58:09.828Z,27.33
2019-02-10T15:00:38.246Z,19.93
2019-02-10T15:03:06.688Z,18.73
2019-02-10T15:05:35.110Z,22.53
2019-02-10T15:08:03.508Z,19.97
2019-02-10T15:10:31.951Z,24.47
2019-02-10T15:13:00.376Z,22.17
2019-02-10T15:15:28.816Z,17.57
2019-02-10T15:17:57.261Z,22.53
2019-02-10T15:20:25.698Z,19.40
2019-02-10T15:22:54.102Z,16.20
2019-02-10T15:25:22.799Z,16.80
2019-02-10T15:27:51.263Z,15.33
2019-02-10T15:30:19.802Z,18.80
2019-02-10T15:32:50.108Z,17.37
2019-02-10T15:35:18.544Z,17.37
2019-02-10T15:37:46.962Z,14.77
2019-02-10T15:40:15.390Z,16.77
2019-02-10T15:42:43.801Z,20.77
2019-02-10T15:45:13.376Z,21.73
2019-02-10T15:47:41.826Z,15.77
2019-02-10T15:50:12.474Z,14.13
2019-02-10T15:52:40.885Z,13.03
2019-02-10T15:55:11.148Z,16.70
2019-02-10T15:57:39.612Z,19.87
2019-02-10T16:00:19.706Z,15.70
2019-02-10T16:02:48.183Z,15.27
2019-02-10T16:05:16.622Z,18.00
2019-02-10T16:07:45.024Z,15.80
2019-02-10T16:10:13.425Z,21.77
2019-02-10T16:12:41.862Z,17.13
2019-02-10T16:15:11.848Z,13.20
2019-02-10T16:17:40.249Z,22.00
2019-02-10T16:20:11.235Z,21.70
2019-02-10T16:22:39.644Z,20.70
2019-02-10T16:25:08.692Z,18.23
2019-02-10T16:27:37.120Z,16.27
2019-02-10T16:30:11.048Z,28.70
2019-02-10T16:32:39.456Z,24.20
2019-02-10T16:35:08.405Z,23.60
2019-02-10T16:37:36.843Z,20.43
2019-02-10T16:40:13.942Z,20.07
2019-02-10T16:42:42.373Z,28.73
2019-02-10T16:45:12.116Z,26.43
2019-02-10T16:47:40.552Z,29.50
2019-02-10T16:50:11.324Z,27.50
2019-02-10T16:52:39.973Z,35.10
2019-02-10T16:55:16.262Z,36.60
2019-02-10T16:57:44.666Z,31.53
2019-02-10T17:00:17.094Z,26.23
2019-02-10T17:02:45.492Z,24.37
2019-02-10T17:05:13.993Z,20.13
2019-02-10T17:07:42.662Z,21.27
2019-02-10T17:10:18.393Z,23.37
2019-02-10T17:12:46.832Z,20.80
2019-02-10T17:15:15.240Z,24.27
2019-02-10T17:17:43.643Z,26.00
2019-02-10T17:20:13.035Z,20.73
2019-02-10T17:22:41.621Z,25.17
2019-02-10T17:25:15.559Z,24.67
2019-02-10T17:27:43.991Z,14.57
2019-02-10T17:30:14.140Z,15.90
2019-02-10T17:32:42.584Z,18.63
2019-02-10T17:35:12.625Z,22.47
2019-02-10T17:37:41.120Z,24.37
2019-02-10T17:40:18.270Z,19.10
2019-02-10T17:42:46.705Z,20.87
2019-02-10T17:45:15.175Z,23.63
2019-02-10T17:47:43.591Z,22.90
2019-02-10T17:50:12.540Z,20.87
2019-02-10T17:52:40.993Z,22.43
2019-02-10T17:55:10.038Z,15.03
2019-02-10T17:57:38.442Z,13.87
2019-02-10T18:00:15.431Z,13.03
2019-02-10T18:02:43.845Z,14.47
2019-02-10T18:05:12.391Z,12.53
2019-02-10T18:07:40.852Z,12.50
2019-02-10T18:10:11.951Z,11.33
2019-02-10T18:12:40.427Z,10.67
2019-02-10T18:15:12.193Z,12.27
2019-02-10T18:17:42.228Z,12.13
2019-02-10T18:20:21.995Z,11.67
2019-02-10T18:22:52.028Z,10.03
2019-02-10T18:25:24.821Z,8.47
2019-02-10T18:28:10.884Z,10.23
2019-02-10T18:30:40.925Z,8.47
2019-02-10T18:33:14.004Z,9.43
2019-02-10T18:35:59.141Z,11.77
2019-02-10T18:38:31.696Z,9.67
2019-02-10T18:41:01.775Z,14.40
2019-02-10T18:43:31.833Z,12.63
2019-02-10T18:46:01.897Z,11.80
2019-02-10T18:48:37.796Z,13.53
2019-02-10T18:51:13.877Z,9.67
2019-02-10T18:53:43.940Z,8.47
2019-02-10T18:56:14.028Z,10.57
2019-02-10T18:58:44.069Z,14.43
2019-02-10T19:01:22.723Z,10.30
2019-02-10T19:03:55.464Z,14.83
2019-02-10T19:06:37.324Z,10.07
2019-02-10T19:09:26.021Z,10.43
2019-02-10T19:12:01.613Z,11.07
2019-02-10T19:14:44.465Z,11.47
2019-02-10T19:17:28.078Z,12.00
2019-02-10T19:20:00.561Z,11.83
2019-02-10T19:22:33.046Z,12.53
2019-02-10T19:25:03.345Z,11.87
2019-02-10T19:27:33.387Z,10.20
2019-02-10T19:30:15.001Z,13.70
2019-02-10T19:32:45.068Z,9.57
2019-02-10T19:35:15.115Z,9.80
2019-02-10T19:38:00.018Z,13.60
2019-02-10T19:40:30.133Z,14.37
2019-02-10T19:43:09.340Z,15.87
2019-02-10T19:45:41.837Z,14.60
2019-02-10T19:48:17.516Z,14.70
2019-02-10T19:50:50.329Z,17.30
2019-02-10T19:53:23.360Z,14.90
2019-02-10T19:56:08.501Z,13.07
2019-02-10T19:58:38.565Z,15.73
2019-02-10T20:01:11.325Z,12.70
2019-02-10T20:03:56.432Z,12.77
2019-02-10T20:06:35.388Z,7.67
2019-02-10T20:09:06.260Z,7.73
2019-02-10T20:11:38.989Z,6.30
2019-02-10T20:14:09.026Z,6.93
2019-02-10T20:16:47.828Z,4.50
2019-02-10T20:19:35.932Z,5.47
2019-02-10T20:22:21.884Z,4.43
2019-02-10T20:25:07.017Z,3.80
2019-02-10T20:27:42.761Z,3.77
2019-02-10T20:30:28.581Z,3.93
2019-02-10T20:32:58.651Z,5.00
2019-02-10T20:35:28.797Z,3.47
2019-02-10T20:38:04.641Z,4.10
2019-02-10T20:40:34.706Z,4.10
2019-02-10T20:43:07.476Z,2.60
2019-02-10T20:45:49.597Z,4.97
2019-02-10T20:48:19.672Z,2.60
2019-02-10T20:50:49.724Z,2.90
2019-02-10T20:53:31.350Z,3.43
2019-02-10T20:56:01.673Z,2.30
2019-02-10T20:58:37.890Z,2.20
2019-02-10T21:01:07.972Z,2.10
2019-02-10T21:03:40.751Z,2.77
2019-02-10T21:06:10.832Z,2.43
2019-02-10T21:08:40.875Z,2.80
2019-02-10T21:11:10.921Z,3.10
2019-02-10T21:13:43.899Z,2.93
2019-02-10T21:16:19.725Z,2.70
2019-02-10T21:18:49.800Z,2.40
2019-02-10T21:21:25.528Z,2.43
2019-02-10T21:24:07.659Z,2.40
2019-02-10T21:26:37.725Z,2.67
2019-02-10T21:29:07.816Z,2.40
2019-02-10T21:31:53.853Z,3.17
2019-02-10T21:34:40.165Z,3.43
2019-02-10T21:37:15.709Z,3.57
2019-02-10T21:40:03.593Z,5.10
2019-02-10T21:42:42.576Z,6.20
2019-02-10T21:45:12.633Z,6.77
2019-02-10T21:47:42.704Z,7.43
2019-02-10T21:50:11.113Z,7.17
2019-02-10T21:52:39.544Z,8.63
2019-02-10T21:55:09.101Z,8.77
2019-02-10T21:57:37.529Z,9.13
2019-02-10T22:00:12.025Z,10.63
2019-02-10T22:02:40.494Z,15.90
2019-02-10T22:05:08.993Z,18.50
2019-02-10T22:07:37.400Z,16.17
2019-02-10T22:10:09.122Z,19.83
2019-02-10T22:12:37.535Z,17.97
2019-02-10T22:15:08.621Z,25.20
2019-02-10T22:17:37.044Z,24.73
2019-02-10T22:20:08.760Z,31.77
2019-02-10T22:22:37.192Z,23.70
2019-02-10T22:25:08.570Z,24.30
2019-02-10T22:27:36.989Z,21.27
2019-02-10T22:30:08.474Z,32.67
2019-02-10T22:32:36.913Z,28.03
2019-02-10T22:35:05.590Z,28.30
2019-02-10T22:37:34.009Z,30.60
2019-02-10T22:40:02.489Z,33.60
2019-02-10T22:42:31.053Z,31.10
2019-02-10T22:44:59.465Z,35.00
2019-02-10T22:47:28.583Z,40.50
2019-02-10T22:49:56.997Z,51.93
2019-02-10T22:52:25.449Z,37.33
2019-02-10T22:54:54.074Z,49.83
2019-02-10T22:57:22.900Z,59.63
2019-02-10T22:59:51.333Z,59.53
2019-02-10T23:02:19.761Z,67.07
2019-02-10T23:04:48.174Z,64.47
2019-02-10T23:07:16.630Z,78.80
2019-02-10T23:09:45.033Z,69.20
2019-02-10T23:12:13.532Z,73.43
2019-02-10T23:14:42.062Z,76.03
2019-02-10T23:17:10.496Z,65.80
2019-02-10T23:19:38.900Z,67.03
2019-02-10T23:22:07.332Z,60.20
2019-02-10T23:24:35.748Z,61.90
2019-02-10T23:27:04.189Z,47.87
2019-02-10T23:29:32.616Z,55.90
2019-02-10T23:32:01.129Z,56.63
2019-02-10T23:34:29.567Z,57.63
2019-02-10T23:36:57.973Z,52.37
2019-02-10T23:39:26.422Z,54.33
2019-02-10T23:41:54.852Z,46.27
2019-02-10T23:44:23.261Z,37.23
2019-02-10T23:46:51.672Z,43.20
2019-02-10T23:49:20.099Z,41.90
2019-02-10T23:51:48.557Z,42.73
2019-02-10T23:54:17.048Z,50.10
2019-02-10T23:56:47.291Z,45.47
2019-02-10T23:59:15.656Z,40.97
